N806SB LATI-LIBD
Flight info
| Callsign | N806SB |
|---|---|
| Flight time | 0h 31m |
| Altitude | 18000 |
| Route | DIRES DCT PAPIZ DCT ENOXA |
| Aircraft | B738/M-SDE2E3FGHIRWXY/LB1 |
Departure
| Time | 2026-04-28 18:59 |
|---|---|
| Airport | Tirana International Airport Mother Teresa (LATI) |
Arrival
| Time | 2026-04-28 19:31 |
|---|---|
| Airport | Bari Karol Wojtyła International Airport (LIBD) |
| Time | Latitude | Longitude | Altitude | Speed | Heading |
|---|---|---|---|---|---|
| 2026-04-28 18:40 | 41.42341 | 19.71472 | 119 ft | 0 kts | 265° |
| 2026-04-28 18:53 | 41.42342 | 19.71478 | 119 ft | 2 kts | 265° |
| 2026-04-28 18:53 | 41.42343 | 19.71499 | 66 ft | 2 kts | 265° |
| 2026-04-28 18:53 | 41.42344 | 19.71521 | 151 ft | 2 kts | 265° |
| 2026-04-28 18:54 | 41.42346 | 19.71543 | 112 ft | 2 kts | 265° |
| 2026-04-28 18:54 | 41.42346 | 19.71544 | 112 ft | 0 kts | 265° |
| 2026-04-28 18:56 | 41.42357 | 19.71531 | 107 ft | 4 kts | 335° |
| 2026-04-28 18:57 | 41.42415 | 19.71521 | 117 ft | 10 kts | 357° |
| 2026-04-28 18:57 | 41.42487 | 19.71507 | 116 ft | 11 kts | 353° |
| 2026-04-28 18:57 | 41.42568 | 19.71498 | 115 ft | 12 kts | 353° |
| 2026-04-28 18:57 | 41.42654 | 19.71512 | 115 ft | 13 kts | 44° |
| 2026-04-28 18:58 | 41.42678 | 19.71634 | 117 ft | 16 kts | 80° |
| 2026-04-28 18:58 | 41.42690 | 19.71792 | 115 ft | 18 kts | 85° |
| 2026-04-28 18:58 | 41.42672 | 19.71886 | 117 ft | 7 kts | 158° |
| 2026-04-28 18:58 | 41.42623 | 19.71903 | 114 ft | 7 kts | 170° |
| 2026-04-28 18:59 | 41.42517 | 19.71918 | 116 ft | 45 kts | 175° |
| 2026-04-28 18:59 | 41.41880 | 19.72003 | 118 ft | 136 kts | 174° |
| 2026-04-28 18:59 | 41.40703 | 19.72156 | 373 ft | 193 kts | 174° |
| 2026-04-28 18:59 | 41.39357 | 19.72332 | 1716 ft | 187 kts | 175° |
| 2026-04-28 19:00 | 41.38088 | 19.72484 | 3031 ft | 184 kts | 176° |
| 2026-04-28 19:00 | 41.36776 | 19.72591 | 4056 ft | 191 kts | 176° |
| 2026-04-28 19:00 | 41.35451 | 19.72719 | 5207 ft | 189 kts | 175° |
| 2026-04-28 19:00 | 41.34177 | 19.72850 | 6385 ft | 181 kts | 175° |
| 2026-04-28 19:01 | 41.32939 | 19.72999 | 7332 ft | 179 kts | 172° |
| 2026-04-28 19:01 | 41.31634 | 19.73241 | 7841 ft | 205 kts | 172° |
| 2026-04-28 19:01 | 41.30132 | 19.73503 | 8035 ft | 228 kts | 173° |
| 2026-04-28 19:01 | 41.28487 | 19.73752 | 8267 ft | 249 kts | 174° |
| 2026-04-28 19:02 | 41.26714 | 19.73992 | 8673 ft | 259 kts | 176° |
| 2026-04-28 19:02 | 41.24954 | 19.73550 | 9181 ft | 263 kts | 209° |
| 2026-04-28 19:02 | 41.23648 | 19.71885 | 9831 ft | 264 kts | 237° |
| 2026-04-28 19:02 | 41.22807 | 19.69674 | 10222 ft | 277 kts | 246° |
| 2026-04-28 19:03 | 41.22052 | 19.67190 | 10357 ft | 304 kts | 248° |
| 2026-04-28 19:03 | 41.21234 | 19.64461 | 10605 ft | 327 kts | 248° |
| 2026-04-28 19:03 | 41.20347 | 19.61630 | 11224 ft | 336 kts | 247° |
| 2026-04-28 19:03 | 41.19400 | 19.58789 | 12123 ft | 336 kts | 245° |
| 2026-04-28 19:04 | 41.18419 | 19.56020 | 13109 ft | 333 kts | 245° |
| 2026-04-28 19:04 | 41.17434 | 19.53258 | 14114 ft | 330 kts | 245° |
| 2026-04-28 19:04 | 41.16467 | 19.50513 | 14997 ft | 327 kts | 246° |
| 2026-04-28 19:04 | 41.15512 | 19.47762 | 15695 ft | 328 kts | 246° |
| 2026-04-28 19:05 | 41.14557 | 19.44983 | 16041 ft | 327 kts | 247° |
| 2026-04-28 19:05 | 41.13623 | 19.42243 | 16057 ft | 331 kts | 247° |
| 2026-04-28 19:05 | 41.12676 | 19.39460 | 16067 ft | 329 kts | 247° |
| 2026-04-28 19:05 | 41.11739 | 19.36705 | 16071 ft | 326 kts | 247° |
| 2026-04-28 19:06 | 41.10809 | 19.33972 | 16076 ft | 324 kts | 247° |
| 2026-04-28 19:06 | 41.10196 | 19.32172 | 16078 ft | 324 kts | 247° |
| 2026-04-28 19:06 | 41.08955 | 19.28531 | 16075 ft | 324 kts | 247° |
| 2026-04-28 19:06 | 41.08024 | 19.25803 | 16080 ft | 325 kts | 247° |
| 2026-04-28 19:07 | 41.07102 | 19.23106 | 16085 ft | 326 kts | 247° |
| 2026-04-28 19:07 | 41.06163 | 19.20367 | 16082 ft | 327 kts | 246° |
| 2026-04-28 19:07 | 41.04915 | 19.17846 | 16060 ft | 331 kts | 224° |
| 2026-04-28 19:07 | 41.03106 | 19.15968 | 16082 ft | 332 kts | 217° |
| 2026-04-28 19:08 | 41.01316 | 19.14012 | 16061 ft | 332 kts | 231° |
| 2026-04-28 19:08 | 41.00431 | 19.12375 | 16093 ft | 330 kts | 240° |
| 2026-04-28 19:08 | 40.98790 | 19.08934 | 16075 ft | 332 kts | 234° |
| 2026-04-28 19:08 | 40.97823 | 19.07368 | 16073 ft | 333 kts | 229° |
| 2026-04-28 19:09 | 40.96214 | 19.05153 | 16085 ft | 333 kts | 227° |
| 2026-04-28 19:09 | 40.94592 | 19.02965 | 16082 ft | 333 kts | 227° |
| 2026-04-28 19:09 | 40.93000 | 19.00735 | 16076 ft | 333 kts | 229° |
| 2026-04-28 19:09 | 40.91438 | 18.98475 | 16079 ft | 333 kts | 230° |
| 2026-04-28 19:10 | 40.90117 | 18.95984 | 16058 ft | 330 kts | 249° |
| 2026-04-28 19:10 | 40.89772 | 18.93048 | 16081 ft | 325 kts | 277° |
| 2026-04-28 19:10 | 40.90357 | 18.90188 | 16100 ft | 323 kts | 291° |
| 2026-04-28 19:10 | 40.91191 | 18.87411 | 16082 ft | 324 kts | 292° |
| 2026-04-28 19:11 | 40.92006 | 18.84629 | 16072 ft | 325 kts | 290° |
| 2026-04-28 19:11 | 40.92701 | 18.81830 | 16068 ft | 325 kts | 288° |
| 2026-04-28 19:11 | 40.93366 | 18.78935 | 16070 ft | 325 kts | 287° |
| 2026-04-28 19:11 | 40.94022 | 18.76062 | 16070 ft | 325 kts | 287° |
| 2026-04-28 19:12 | 40.94685 | 18.73203 | 16072 ft | 325 kts | 288° |
| 2026-04-28 19:12 | 40.95353 | 18.70372 | 16073 ft | 325 kts | 288° |
| 2026-04-28 19:12 | 40.96035 | 18.67519 | 16073 ft | 325 kts | 288° |
| 2026-04-28 19:12 | 40.96722 | 18.64668 | 16078 ft | 325 kts | 288° |
| 2026-04-28 19:13 | 40.97415 | 18.61811 | 16080 ft | 326 kts | 288° |
| 2026-04-28 19:13 | 40.98108 | 18.58954 | 16073 ft | 326 kts | 288° |
| 2026-04-28 19:13 | 40.98803 | 18.56095 | 16075 ft | 325 kts | 288° |
| 2026-04-28 19:13 | 40.99497 | 18.53239 | 16077 ft | 325 kts | 288° |
| 2026-04-28 19:14 | 41.00189 | 18.50388 | 16073 ft | 325 kts | 288° |
| 2026-04-28 19:14 | 41.00880 | 18.47540 | 16073 ft | 325 kts | 288° |
| 2026-04-28 19:14 | 41.01565 | 18.44715 | 16069 ft | 325 kts | 288° |
| 2026-04-28 19:14 | 41.02262 | 18.41832 | 16068 ft | 325 kts | 288° |
| 2026-04-28 19:15 | 41.02944 | 18.39011 | 16069 ft | 326 kts | 288° |
| 2026-04-28 19:15 | 41.03634 | 18.36152 | 16074 ft | 326 kts | 288° |
| 2026-04-28 19:15 | 41.04323 | 18.33296 | 16075 ft | 326 kts | 288° |
| 2026-04-28 19:15 | 41.04782 | 18.31392 | 16068 ft | 326 kts | 288° |
| 2026-04-28 19:16 | 41.05707 | 18.27551 | 16068 ft | 327 kts | 288° |
| 2026-04-28 19:16 | 41.06396 | 18.24682 | 16068 ft | 327 kts | 288° |
| 2026-04-28 19:16 | 41.07087 | 18.21804 | 16068 ft | 327 kts | 288° |
| 2026-04-28 19:16 | 41.07776 | 18.18930 | 16067 ft | 327 kts | 288° |
| 2026-04-28 19:17 | 41.08466 | 18.16048 | 16068 ft | 327 kts | 288° |
| 2026-04-28 19:17 | 41.09153 | 18.13174 | 16063 ft | 327 kts | 288° |
| 2026-04-28 19:17 | 41.09840 | 18.10297 | 16061 ft | 327 kts | 288° |
| 2026-04-28 19:17 | 41.10525 | 18.07425 | 16063 ft | 327 kts | 288° |
| 2026-04-28 19:18 | 41.11212 | 18.04543 | 16065 ft | 327 kts | 288° |
| 2026-04-28 19:18 | 41.11898 | 18.01662 | 16067 ft | 327 kts | 288° |
| 2026-04-28 19:18 | 41.12573 | 17.98822 | 16067 ft | 327 kts | 288° |
| 2026-04-28 19:18 | 41.13252 | 17.95958 | 16069 ft | 327 kts | 288° |
| 2026-04-28 19:19 | 41.13934 | 17.93080 | 16046 ft | 323 kts | 288° |
| 2026-04-28 19:19 | 41.14606 | 17.90244 | 15780 ft | 321 kts | 288° |
| 2026-04-28 19:19 | 41.15274 | 17.87415 | 15358 ft | 321 kts | 288° |
| 2026-04-28 19:19 | 41.15945 | 17.84578 | 14906 ft | 323 kts | 288° |
| 2026-04-28 19:20 | 41.16609 | 17.81762 | 14523 ft | 323 kts | 288° |
| 2026-04-28 19:20 | 41.17286 | 17.78891 | 14163 ft | 321 kts | 288° |
| 2026-04-28 19:20 | 41.17940 | 17.76110 | 13787 ft | 320 kts | 288° |
| 2026-04-28 19:20 | 41.18601 | 17.73298 | 13398 ft | 318 kts | 288° |
| 2026-04-28 19:21 | 41.19261 | 17.70486 | 13032 ft | 317 kts | 288° |
| 2026-04-28 19:21 | 41.19915 | 17.67698 | 12671 ft | 315 kts | 288° |
| 2026-04-28 19:21 | 41.20475 | 17.64901 | 12301 ft | 313 kts | 282° |
| 2026-04-28 19:21 | 41.20821 | 17.62050 | 11939 ft | 312 kts | 278° |
| 2026-04-28 19:22 | 41.21096 | 17.59196 | 11595 ft | 310 kts | 277° |
| 2026-04-28 19:22 | 41.21271 | 17.57317 | 11364 ft | 309 kts | 277° |
| 2026-04-28 19:22 | 41.21633 | 17.53547 | 10905 ft | 307 kts | 278° |
| 2026-04-28 19:22 | 41.21917 | 17.50741 | 10575 ft | 305 kts | 278° |
| 2026-04-28 19:23 | 41.22205 | 17.47962 | 10243 ft | 303 kts | 278° |
| 2026-04-28 19:23 | 41.22499 | 17.45192 | 9911 ft | 302 kts | 278° |
| 2026-04-28 19:23 | 41.22794 | 17.42437 | 9554 ft | 300 kts | 279° |
| 2026-04-28 19:23 | 41.23086 | 17.39721 | 9201 ft | 299 kts | 279° |
| 2026-04-28 19:24 | 41.23380 | 17.36999 | 8848 ft | 297 kts | 279° |
| 2026-04-28 19:24 | 41.23673 | 17.34287 | 8474 ft | 296 kts | 278° |
| 2026-04-28 19:24 | 41.23963 | 17.31590 | 8147 ft | 295 kts | 278° |
| 2026-04-28 19:24 | 41.24253 | 17.28900 | 7829 ft | 293 kts | 278° |
| 2026-04-28 19:25 | 41.24540 | 17.26225 | 7487 ft | 292 kts | 278° |
| 2026-04-28 19:25 | 41.24826 | 17.23559 | 7151 ft | 291 kts | 278° |
| 2026-04-28 19:25 | 41.25110 | 17.20904 | 6822 ft | 289 kts | 278° |
| 2026-04-28 19:25 | 41.25392 | 17.18269 | 6495 ft | 288 kts | 278° |
| 2026-04-28 19:26 | 41.25671 | 17.15643 | 6161 ft | 287 kts | 278° |
| 2026-04-28 19:26 | 41.25953 | 17.12998 | 6091 ft | 291 kts | 278° |
| 2026-04-28 19:26 | 41.26236 | 17.10327 | 6057 ft | 291 kts | 278° |
| 2026-04-28 19:26 | 41.26512 | 17.07720 | 6052 ft | 287 kts | 277° |
| 2026-04-28 19:27 | 41.26667 | 17.05079 | 6033 ft | 287 kts | 267° |
| 2026-04-28 19:27 | 41.26215 | 17.02474 | 5722 ft | 294 kts | 246° |
| 2026-04-28 19:27 | 41.25152 | 17.00173 | 5597 ft | 290 kts | 230° |
| 2026-04-28 19:27 | 41.23755 | 16.98278 | 5395 ft | 287 kts | 223° |
| 2026-04-28 19:28 | 41.22265 | 16.96499 | 4961 ft | 289 kts | 220° |
| 2026-04-28 19:28 | 41.20718 | 16.94783 | 4534 ft | 290 kts | 218° |
| 2026-04-28 19:28 | 41.19130 | 16.93068 | 3942 ft | 296 kts | 220° |
| 2026-04-28 19:28 | 41.17735 | 16.91058 | 3411 ft | 300 kts | 235° |
| 2026-04-28 19:29 | 41.16728 | 16.88524 | 2296 ft | 322 kts | 248° |
| 2026-04-28 19:29 | 41.16256 | 16.86667 | 2020 ft | 319 kts | 252° |
| 2026-04-28 19:29 | 41.15526 | 16.83120 | 1747 ft | 270 kts | 255° |
| 2026-04-28 19:29 | 41.15084 | 16.80800 | 1147 ft | 247 kts | 255° |
| 2026-04-28 19:30 | 41.14661 | 16.78691 | 593 ft | 228 kts | 248° |
| 2026-04-28 19:30 | 41.14066 | 16.76853 | 161 ft | 198 kts | 250° |
| 2026-04-28 19:30 | 41.13647 | 16.75324 | 172 ft | 156 kts | 249° |
| 2026-04-28 19:30 | 41.13366 | 16.74222 | 200 ft | 81 kts | 246° |
| 2026-04-28 19:31 | 41.13228 | 16.74098 | 197 ft | 13 kts | 140° |
| 2026-04-28 19:31 | 41.13188 | 16.74188 | 203 ft | 10 kts | 117° |
| 2026-04-28 19:31 | 41.13168 | 16.74273 | 202 ft | 9 kts | 89° |
| 2026-04-28 19:31 | 41.13180 | 16.74351 | 209 ft | 9 kts | 72° |
| 2026-04-28 19:32 | 41.13204 | 16.74434 | 199 ft | 12 kts | 70° |
| 2026-04-28 19:32 | 41.13251 | 16.74594 | 191 ft | 22 kts | 69° |
| 2026-04-28 19:32 | 41.13304 | 16.74784 | 191 ft | 22 kts | 71° |
| 2026-04-28 19:32 | 41.13358 | 16.74981 | 180 ft | 24 kts | 70° |
| 2026-04-28 19:33 | 41.13419 | 16.75188 | 174 ft | 24 kts | 71° |
| 2026-04-28 19:33 | 41.13469 | 16.75373 | 169 ft | 8 kts | 69° |
| 2026-04-28 19:33 | 41.13492 | 16.75451 | 169 ft | 11 kts | 69° |
| 2026-04-28 19:33 | 41.13527 | 16.75572 | 167 ft | 16 kts | 69° |
| 2026-04-28 19:34 | 41.13569 | 16.75717 | 164 ft | 17 kts | 70° |
| 2026-04-28 19:34 | 41.13610 | 16.75863 | 162 ft | 17 kts | 68° |
| 2026-04-28 19:34 | 41.13631 | 16.75936 | 158 ft | 0 kts | 71° |
| 2026-04-28 19:34 | 41.13631 | 16.75938 | 158 ft | 0 kts | 71° |
| 2026-04-28 19:35 | 41.13634 | 16.75948 | 158 ft | 3 kts | 73° |
| 2026-04-28 19:35 | 41.13617 | 16.76079 | 153 ft | 19 kts | 100° |
| 2026-04-28 19:35 | 41.13639 | 16.76166 | 151 ft | 14 kts | 72° |
| 2026-04-28 19:35 | 41.13671 | 16.76278 | 148 ft | 0 kts | 84° |
| 2026-04-28 19:36 | 41.13671 | 16.76282 | 148 ft | 1 kts | 89° |
| 2026-04-28 19:36 | 41.13627 | 16.76345 | 147 ft | 13 kts | 179° |
| 2026-04-28 19:36 | 41.13574 | 16.76305 | 150 ft | 5 kts | 194° |
| 2026-04-28 19:36 | 41.13571 | 16.76305 | 150 ft | 0 kts | 188° |
| 2026-04-28 19:37 | 41.13570 | 16.76304 | 150 ft | 0 kts | 188° |
| 2026-04-28 19:37 | 41.13568 | 16.76304 | 150 ft | 1 kts | 186° |
| 2026-04-28 19:37 | 41.13564 | 16.76304 | 150 ft | 0 kts | 183° |
| 2026-04-28 19:37 | 41.13559 | 16.76305 | 150 ft | 1 kts | 176° |
| 2026-04-28 19:38 | 41.13552 | 16.76306 | 150 ft | 1 kts | 173° |
| 2026-04-28 19:38 | 41.13549 | 16.76306 | 150 ft | 0 kts | 173° |
| 2026-04-28 19:38 | 41.13546 | 16.76307 | 150 ft | 1 kts | 167° |
| 2026-04-28 19:38 | 41.13531 | 16.76313 | 150 ft | 0 kts | 155° |
| 2026-04-28 19:39 | 41.13526 | 16.76316 | 150 ft | 0 kts | 158° |